Hamburg, Illinois
Current Conditions -  °F | °C
As of 3:54 AM on Saturday 29 Nov 2014 (Local Time) from KSET Reporting Station
Clear Clear  
Wind Chill: 27°   Ceiling: Unl
Heat Index: 34°   Visibility: 10mi
Dew Point: 33°   Wind: 8mph
Humidity: 96%   Direction: 90°E
Pressure: 29.8"   Gusts: NA
Location:  39.23°N, 90.72°W
Report Text: KSET 290954Z AUTO 09007KT 10SM CLR 01/01 A2980 RMK AO2 SLP092 T00110006
Loading
Personal Weather Stations






























Interactive Weather Map New forecast layout! Learn more

10-Day Weather Forecast

Advertisements
Track Severe Weather on mobile